Dades meteomassalio
Diari Summary for Diciembre 3, 2017 Units:  Metric    English   Both
« Previous Day
Next Day »
Diari Semanal Mensual Anual Personalitzat
  Maxima: Minima: Mijana:
Temperatura: -17.8 °C -19.3 °C -15.9 °C
Rosada: -17.8 °C -23.1 °C -21.6 °C
Humitat: Humidity % 30 % 49 %
Velocitat del vent: 0 km/h 3.1 km/h 37.2 km/h
Racha vent: 0 km/h - -
Vent:- - NW
Pressio: 0 hPa 34716.7 hPa -
Pluja: 0 mm    
Historical Graphs
 
 
Tabular Data for Diciembre 3, 2017
Time Temperature Dew Point Pressure Wind Wind Speed Wind Gust Humidity Rainfall Rate (Hourly) solar Conditions
-17.8 °C -17.8 °C 0 hPa Calm     Humidity % 0 mm SolarRadiationWatts/m^2 W/m2 Conditions
00:04 -17.2 °C -20.3 °C 34716.7 hPa WNW 53.6 km/h 53.6 km/h 66 % 0 mm 0.0 W/m2 CLR
00:14 -17.2 °C -20.3 °C 34716.7 hPa WNW 47.6 km/h 47.6 km/h 66 % 0 mm 0.0 W/m2 CLR
00:19 -17.2 °C -20.3 °C 34716.7 hPa NNW 38.8 km/h 38.8 km/h 66 % 0 mm 0.0 W/m2 CLR
00:24 -16.8 °C -20 °C 34726.8 hPa NW 29.8 km/h 29.8 km/h 66 % 0 mm 0.0 W/m2 CLR
00:29 -17.2 °C -20.3 °C 34726.8 hPa WNW 38.8 km/h 38.8 km/h 66 % 0 mm 0.0 W/m2 CLR
00:34 -17.2 °C -20.4 °C 34726.8 hPa NW 26.9 km/h 26.9 km/h 65 % 0 mm 0.0 W/m2 CLR
00:39 -17.2 °C -20.4 °C 34726.8 hPa NW 36.2 km/h 36.2 km/h 65 % 0 mm 0.0 W/m2 CLR
00:49 -17.2 °C -20.4 °C 34740.4 hPa NW 29.8 km/h 29.8 km/h 65 % 0 mm 0.0 W/m2 CLR
00:55 -17.2 °C -20.5 °C 34740.4 hPa West 26.9 km/h 26.9 km/h 64 % 0 mm 0.0 W/m2 CLR
01:05 -17.2 °C -20.5 °C 34740.4 hPa West 29.8 km/h 29.8 km/h 64 % 0 mm 0.0 W/m2 CLR
01:10 -17.2 °C -20.7 °C 34740.4 hPa WNW 18.2 km/h 18.3 km/h 63 % 0 mm 0.0 W/m2 CLR
01:15 -17.2 °C -20.7 °C 34740.4 hPa WNW 25.9 km/h 25.9 km/h 63 % 0 mm 0.0 W/m2 CLR
01:20 -17.2 °C -20.7 °C 34750.5 hPa WNW 23.8 km/h 23.8 km/h 63 % 0 mm 0.0 W/m2 CLR
01:25 -17.2 °C -20.8 °C 34740.4 hPa West 29.8 km/h 29.8 km/h 62 % 0 mm 0.0 W/m2 CLR
01:30 -17.2 °C -20.8 °C 34740.4 hPa NW 31.1 km/h 31.1 km/h 62 % 0 mm 0.0 W/m2 CLR
01:40 -17.2 °C -20.9 °C 34740.4 hPa WNW 38.8 km/h 38.8 km/h 61 % 0 mm 0.0 W/m2 CLR
01:45 -17.2 °C -21 °C 34740.4 hPa NW 32.8 km/h 32.8 km/h 60 % 0 mm 0.0 W/m2 CLR
01:55 -17.2 °C -21 °C 34740.4 hPa NW 33.6 km/h 33.6 km/h 60 % 0 mm 0.0 W/m2 CLR
02:00 -17.2 °C -21 °C 34740.4 hPa NW 38.8 km/h 38.8 km/h 60 % 0 mm 0.0 W/m2 CLR
02:05 -17.2 °C -21 °C 34740.4 hPa NW 38.8 km/h 38.8 km/h 60 % 0 mm 0.0 W/m2 CLR
02:10 -17.2 °C -21 °C 34740.4 hPa NW 38.8 km/h 38.8 km/h 60 % 0 mm 0.0 W/m2 CLR
02:15 -17.2 °C -21 °C 34740.4 hPa NW 50.7 km/h 50.7 km/h 60 % 0 mm 0.0 W/m2 CLR
02:25 -17.2 °C -21 °C 34740.4 hPa NW 44.7 km/h 44.7 km/h 60 % 0 mm 0.0 W/m2 CLR
02:35 -17.2 °C -20.9 °C 34740.4 hPa WNW 41.7 km/h 41.7 km/h 61 % 0 mm 0.0 W/m2 CLR
02:40 -17.2 °C -20.9 °C 34750.5 hPa NW 35.7 km/h 35.7 km/h 61 % 0 mm 0.0 W/m2 CLR
02:50 -17.2 °C -21 °C 34750.5 hPa West 32.8 km/h 32.8 km/h 60 % 0 mm 0.0 W/m2 CLR
03:00 -17.2 °C -21 °C 34750.5 hPa WNW 32.8 km/h 32.8 km/h 60 % 0 mm 0.0 W/m2 CLR
03:05 -17.2 °C -21 °C 34750.5 hPa NW 29.8 km/h 29.8 km/h 60 % 0 mm 0.0 W/m2 CLR
03:15 -17.2 °C -21 °C 34760.7 hPa WNW 23.8 km/h 23.8 km/h 60 % 0 mm 0.0 W/m2 CLR
03:20 -17.2 °C -21 °C 34760.7 hPa WNW 17.9 km/h 17.9 km/h 60 % 0 mm 0.0 W/m2 CLR
03:26 -17.2 °C -21 °C 34760.7 hPa WNW 20.9 km/h 20.9 km/h 60 % 0 mm 0.0 W/m2 CLR
03:31 -17.2 °C -21 °C 34760.7 hPa WNW 23.8 km/h 23.8 km/h 60 % 0 mm 0.0 W/m2 CLR
03:36 -17.2 °C -21 °C 34760.7 hPa NNW 23.8 km/h 23.8 km/h 60 % 0 mm 0.0 W/m2 CLR
03:41 -17.4 °C -21.2 °C 34760.7 hPa WNW 26.9 km/h 26.9 km/h 61 % 0 mm 0.0 W/m2 CLR
03:47 -17.2 °C -20.9 °C 34760.7 hPa WNW 29.8 km/h 29.8 km/h 61 % 0 mm 0.0 W/m2 CLR
03:52 -17.2 °C -20.9 °C 34760.7 hPa WNW 29.8 km/h 29.8 km/h 61 % 0 mm 0.0 W/m2 CLR
03:57 -17.2 °C -21 °C 34760.7 hPa WNW 32.8 km/h 32.8 km/h 60 % 0 mm 0.0 W/m2 CLR
04:02 -17.2 °C -20.9 °C 34760.7 hPa NW 36.2 km/h 36.2 km/h 61 % 0 mm 0.0 W/m2 CLR
04:07 -17.2 °C -20.9 °C 34774.2 hPa NW 41.7 km/h 41.7 km/h 61 % 0 mm 0.0 W/m2 CLR
04:12 -17.2 °C -20.9 °C 34774.2 hPa NW 29.8 km/h 29.8 km/h 61 % 0 mm 0.0 W/m2 CLR
04:17 -17.2 °C -20.9 °C 34774.2 hPa NW 38.8 km/h 38.8 km/h 61 % 0 mm 0.0 W/m2 CLR
04:22 -17.2 °C -20.9 °C 34760.7 hPa WNW 32.8 km/h 32.8 km/h 61 % 0 mm 0.0 W/m2 CLR
04:27 -17.2 °C -20.9 °C 34760.7 hPa WNW 38.8 km/h 38.8 km/h 61 % 0 mm 0.0 W/m2 CLR
04:32 -17.2 °C -20.9 °C 34760.7 hPa WNW 29.8 km/h 29.8 km/h 61 % 0 mm 0.0 W/m2 CLR
04:37 -17.2 °C -20.9 °C 34774.2 hPa WNW 38.8 km/h 38.8 km/h 61 % 0 mm 0.0 W/m2 CLR
04:47 -17.2 °C -21 °C 34774.2 hPa WNW 36.2 km/h 36.2 km/h 60 % 0 mm 0.0 W/m2 CLR
04:52 -17.2 °C -21 °C 34774.2 hPa WNW 44.7 km/h 44.7 km/h 60 % 0 mm 0.0 W/m2 CLR
05:07 -17.2 °C -21 °C 34774.2 hPa WNW 32.8 km/h 32.8 km/h 60 % 0 mm 0.0 W/m2 CLR
05:12 -17.2 °C -21 °C 34774.2 hPa WNW 29.8 km/h 29.8 km/h 60 % 0 mm 0.0 W/m2 CLR
05:17 -17.2 °C -21 °C 34784.4 hPa WNW 47.6 km/h 47.6 km/h 60 % 0 mm 0.0 W/m2 CLR
05:22 -17.2 °C -21.1 °C 34784.4 hPa WNW 56.6 km/h 56.6 km/h 59 % 0 mm 0.0 W/m2 CLR
05:27 -17.2 °C -21.1 °C 34784.4 hPa WNW 35.7 km/h 35.7 km/h 59 % 0 mm 0.0 W/m2 CLR
05:32 -17.2 °C -21.1 °C 34784.4 hPa WSW 23.8 km/h 23.8 km/h 59 % 0 mm 0.0 W/m2 CLR
05:42 -17.2 °C -21 °C 34784.4 hPa WNW 38.8 km/h 38.8 km/h 60 % 0 mm 0.0 W/m2 CLR
05:47 -17.4 °C -21.4 °C 34784.4 hPa WNW 29.8 km/h 29.8 km/h 59 % 0 mm 0.0 W/m2 CLR
05:52 -17.4 °C -21.4 °C 34784.4 hPa WNW 41.7 km/h 41.7 km/h 59 % 0 mm 0.0 W/m2 CLR
06:02 -17.4 °C -21.6 °C 34784.4 hPa WNW 38.8 km/h 38.8 km/h 58 % 0 mm 0.0 W/m2 CLR
06:12 -17.2 °C -21.2 °C 34784.4 hPa WNW 35.7 km/h 35.7 km/h 58 % 0 mm 0.0 W/m2 CLR
06:17 -17.2 °C -21.2 °C 34797.9 hPa West 38.8 km/h 38.8 km/h 58 % 0 mm 0.0 W/m2 CLR
06:32 -17.2 °C -21.4 °C 34797.9 hPa WNW 41.7 km/h 41.7 km/h 57 % 0 mm 0.0 W/m2 CLR
06:37 -17.4 °C -21.7 °C 34797.9 hPa WNW 47.6 km/h 47.6 km/h 57 % 0 mm 0.0 W/m2 CLR
06:42 -17.2 °C -21.5 °C 34808.1 hPa WNW 44.7 km/h 44.7 km/h 56 % 0 mm 0.0 W/m2 CLR
06:47 -17.2 °C -21.5 °C 34808.1 hPa WNW 47.6 km/h 47.6 km/h 56 % 0 mm 0.0 W/m2 CLR
06:52 -17.4 °C -21.9 °C 34808.1 hPa WNW 44.7 km/h 44.7 km/h 55 % 0 mm 0.0 W/m2 CLR
06:57 -17.2 °C -21.6 °C 34808.1 hPa West 50.7 km/h 50.7 km/h 55 % 0 mm 0.0 W/m2 CLR
07:07 -17.2 °C -21.6 °C 34818.2 hPa NW 29.8 km/h 29.8 km/h 55 % 0 mm 0.0 W/m2 CLR
07:17 -17.2 °C -21.8 °C 34818.2 hPa NW 50.7 km/h 50.7 km/h 54 % 0 mm 0.0 W/m2 CLR
07:22 -17.2 °C -21.8 °C 34831.8 hPa NW 38.8 km/h 38.8 km/h 54 % 0 mm 0.0 W/m2 CLR
07:28 -17.2 °C -21.8 °C 34831.8 hPa West 35.7 km/h 35.7 km/h 54 % 0 mm 0.0 W/m2 CLR
07:32 -17.2 °C -21.8 °C 34831.8 hPa West 38.8 km/h 39.4 km/h 54 % 0 mm 0.0 W/m2 CLR
07:38 -17.2 °C -21.8 °C 34831.8 hPa NW 35.7 km/h 35.7 km/h 54 % 0 mm 0.0 W/m2 CLR
07:43 -17.2 °C -21.9 °C 34841.9 hPa NW 50.7 km/h 50.7 km/h 53 % 0 mm 0.0 W/m2 CLR
07:48 -17.2 °C -21.9 °C 34841.9 hPa NW 44.7 km/h 44.7 km/h 53 % 0 mm 0.0 W/m2 CLR
07:58 -17.2 °C -22.1 °C 34841.9 hPa West 53.6 km/h 53.6 km/h 52 % 0 mm 0.0 W/m2 CLR
08:03 -17.2 °C -22.1 °C 34841.9 hPa WNW 50.7 km/h 50.7 km/h 52 % 0 mm 0.0 W/m2 OVC
08:08 -17.2 °C -22.1 °C 34841.9 hPa WNW 38.8 km/h 38.8 km/h 52 % 0 mm 5.0 W/m2 OVC
08:13 -17.2 °C -22.1 °C 34841.9 hPa WNW 44.7 km/h 44.7 km/h 52 % 0 mm 7.0 W/m2 BKN
08:18 -17.2 °C -22.1 °C 34841.9 hPa NW 41.7 km/h 41.7 km/h 52 % 0 mm 9.0 W/m2 BKN
08:23 -17.2 °C -22.1 °C 34841.9 hPa NW 44.7 km/h 44.7 km/h 52 % 0 mm 11.0 W/m2 BKN
08:28 -16.8 °C -21.9 °C 34852.1 hPa NW 50.7 km/h 50.7 km/h 51 % 0 mm 14.0 W/m2 BKN
08:38 -16.8 °C -21.9 °C 34852.1 hPa WNW 50.7 km/h 50.7 km/h 51 % 0 mm 21.0 W/m2 BKN
08:43 -16.8 °C -22.1 °C 34865.6 hPa NW 50.7 km/h 50.7 km/h 50 % 0 mm 32.0 W/m2 BKN
08:48 -16.8 °C -22.1 °C 34865.6 hPa WNW 50.7 km/h 50.7 km/h 50 % 0 mm 42.0 W/m2 BKN
08:53 -16.8 °C -22.1 °C 34865.6 hPa NW 38.8 km/h 38.8 km/h 50 % 0 mm 54.0 W/m2 SCT
08:58 -16.8 °C -22.1 °C 34865.6 hPa WNW 41.7 km/h 41.7 km/h 50 % 0 mm 65.0 W/m2 SCT
09:04 -16.8 °C -22.1 °C 34865.6 hPa WNW 41.7 km/h 41.7 km/h 50 % 0 mm 77.0 W/m2 FEW
09:14 -16.6 °C -21.9 °C 34875.8 hPa WNW 41.7 km/h 41.7 km/h 49 % 0 mm 83.0 W/m2 FEW
09:19 -16.6 °C -21.9 °C 34875.8 hPa NNW 38.8 km/h 38.8 km/h 49 % 0 mm 95.0 W/m2 FEW
09:24 -16.6 °C -22.1 °C 34875.8 hPa WNW 31.1 km/h 31.1 km/h 48 % 0 mm 132.0 W/m2 CLR
09:29 -16.6 °C -22.1 °C 34875.8 hPa NW 29.8 km/h 29.8 km/h 48 % 0 mm 146.0 W/m2 CLR
09:34 -16.6 °C -22.2 °C 34889.3 hPa WNW 38.8 km/h 38.8 km/h 47 % 0 mm 160.0 W/m2 CLR
09:39 -16.2 °C -21.9 °C 34889.3 hPa West 47.6 km/h 47.6 km/h 47 % 0 mm 176.0 W/m2 CLR
09:44 -16.2 °C -21.9 °C 34889.3 hPa NW 50.7 km/h 50.7 km/h 47 % 0 mm 190.0 W/m2 CLR
09:59 -15.9 °C -21.8 °C 34899.5 hPa NW 29.8 km/h 29.8 km/h 46 % 0 mm 158.0 W/m2 CLR
10:04 -15.9 °C -21.9 °C 34899.5 hPa NW 47.6 km/h 47.6 km/h 45 % 0 mm 239.0 W/m2 CLR
10:09 -15.9 °C -21.9 °C 34899.5 hPa WNW 41.7 km/h 41.7 km/h 45 % 0 mm 258.0 W/m2 CLR
10:29 -15.6 °C -22 °C 34909.7 hPa NW 47.6 km/h 47.6 km/h 43 % 0 mm 304.0 W/m2 CLR
10:30 -15.6 °C -22 °C 34909.7 hPa NW 50.7 km/h 50.7 km/h 43 % 0 mm 304.0 W/m2 CLR
10:35 -15.6 °C -22 °C 34909.7 hPa WNW 47.6 km/h 47.6 km/h 43 % 0 mm 316.0 W/m2 CLR
10:45 -15.3 °C -21.9 °C 34923.2 hPa NNW 59.5 km/h 59.5 km/h 42 % 0 mm 334.0 W/m2 CLR
10:50 -15.3 °C -22.1 °C 34923.2 hPa NW 50.7 km/h 50.7 km/h 41 % 0 mm 343.0 W/m2 CLR
10:55 -15.3 °C -21.9 °C 34923.2 hPa NW 41.7 km/h 41.7 km/h 42 % 0 mm 352.0 W/m2 CLR
11:00 -15.3 °C -22.1 °C 34923.2 hPa NW 50.7 km/h 50.7 km/h 41 % 0 mm 360.0 W/m2 CLR
11:05 -15 °C -21.8 °C 34923.2 hPa NW 50.7 km/h 50.7 km/h 41 % 0 mm 367.0 W/m2 CLR
11:10 -15 °C -21.9 °C 34923.2 hPa NW 50.7 km/h 50.7 km/h 40 % 0 mm 374.0 W/m2 CLR
11:15 -15 °C -21.9 °C 34933.4 hPa NW 41.7 km/h 41.7 km/h 40 % 0 mm 383.0 W/m2 CLR
11:20 -15 °C -22.1 °C 34933.4 hPa WNW 41.4 km/h 41.4 km/h 39 % 0 mm 392.0 W/m2 CLR
11:25 -15 °C -22.1 °C 34933.4 hPa NW 50.7 km/h 50.7 km/h 39 % 0 mm 397.0 W/m2 CLR
11:30 -14.7 °C -21.8 °C 34933.4 hPa NW 50.7 km/h 50.7 km/h 39 % 0 mm 403.0 W/m2 CLR
11:35 -14.7 °C -21.8 °C 34933.4 hPa NNW 53.6 km/h 53.6 km/h 39 % 0 mm 410.0 W/m2 CLR
11:40 -14.7 °C -21.8 °C 34933.4 hPa NW 47.6 km/h 47.6 km/h 39 % 0 mm 417.0 W/m2 CLR
11:45 -14.7 °C -22.1 °C 34933.4 hPa NW 47.6 km/h 47.6 km/h 38 % 0 mm 420.0 W/m2 CLR
11:50 -14.7 °C -22.1 °C 34933.4 hPa NW 41.7 km/h 41.7 km/h 38 % 0 mm 425.0 W/m2 CLR
11:55 -14.4 °C -21.8 °C 34933.4 hPa NW 38.8 km/h 38.8 km/h 38 % 0 mm 431.0 W/m2 CLR
12:00 -14.4 °C -21.9 °C 34933.4 hPa NW 41.4 km/h 41.4 km/h 37 % 0 mm 436.0 W/m2 CLR
12:05 -14.4 °C -21.9 °C 34933.4 hPa NNW 47.6 km/h 47.6 km/h 37 % 0 mm 441.0 W/m2 CLR
12:10 -14.4 °C -21.9 °C 34933.4 hPa NW 47.6 km/h 47.6 km/h 37 % 0 mm 448.0 W/m2 CLR
12:15 -14.4 °C -22.2 °C 34933.4 hPa NW 41.7 km/h 41.7 km/h 36 % 0 mm 436.0 W/m2 CLR
12:20 -14.4 °C -22.2 °C 34923.2 hPa NNW 49.2 km/h 49.2 km/h 36 % 0 mm 394.0 W/m2 CLR
12:25 -14.1 °C -22.1 °C 34923.2 hPa NNW 56.6 km/h 56.6 km/h 35 % 0 mm 452.0 W/m2 CLR
12:30 -14.1 °C -21.9 °C 34923.2 hPa NW 50.7 km/h 50.7 km/h 36 % 0 mm 457.0 W/m2 CLR
12:35 -14.1 °C -22.1 °C 34923.2 hPa NW 68.6 km/h 68.6 km/h 35 % 0 mm 457.0 W/m2 CLR
12:40 -14.1 °C -22.1 °C 34923.2 hPa WNW 50.7 km/h 50.7 km/h 35 % 0 mm 459.0 W/m2 CLR
12:45 -14.1 °C -22.1 °C 34923.2 hPa NW 53.6 km/h 53.6 km/h 35 % 0 mm 461.0 W/m2 CLR
12:50 -13.8 °C -22 °C 34923.2 hPa WNW 33.6 km/h 33.6 km/h 34 % 0 mm 415.0 W/m2 CLR
12:55 -13.8 °C -22 °C 34909.7 hPa North 44.7 km/h 44.7 km/h 34 % 0 mm 461.0 W/m2 CLR
13:00 -13.8 °C -22 °C 34909.7 hPa NNW 44.7 km/h 44.7 km/h 34 % 0 mm 438.0 W/m2 CLR
13:05 -13.8 °C -21.8 °C 34909.7 hPa NW 41.7 km/h 41.7 km/h 35 % 0 mm 459.0 W/m2 CLR
13:10 -13.8 °C -22 °C 34909.7 hPa North 47.6 km/h 47.6 km/h 34 % 0 mm 455.0 W/m2 CLR
13:16 -13.4 °C -21.7 °C 34909.7 hPa NW 53.6 km/h 53.6 km/h 34 % 0 mm 455.0 W/m2 CLR
13:21 -13.4 °C -21.7 °C 34909.7 hPa NNW 46.7 km/h 46.7 km/h 34 % 0 mm 450.0 W/m2 CLR
13:26 -13.4 °C -21.9 °C 34899.5 hPa NW 44.7 km/h 44.7 km/h 33 % 0 mm 446.0 W/m2 CLR
13:31 -13.4 °C -21.9 °C 34899.5 hPa NNW 47.6 km/h 47.6 km/h 33 % 0 mm 445.0 W/m2 CLR
13:36 -13.4 °C -22.2 °C 34899.5 hPa NNW 53.6 km/h 53.6 km/h 32 % 0 mm 443.0 W/m2 CLR
13:41 -13.4 °C -22.2 °C 34909.7 hPa NW 44.7 km/h 44.7 km/h 32 % 0 mm 439.0 W/m2 CLR
13:46 -13.4 °C -22.2 °C 34899.5 hPa NNW 41.7 km/h 41.7 km/h 32 % 0 mm 441.0 W/m2 CLR
13:51 -13.2 °C -22.1 °C 34899.5 hPa North 47.6 km/h 47.6 km/h 31 % 0 mm 448.0 W/m2 CLR
13:56 -13.2 °C -22.1 °C 34899.5 hPa NNW 50.7 km/h 50.7 km/h 31 % 0 mm 445.0 W/m2 CLR
14:01 -13.2 °C -22.1 °C 34899.5 hPa NNW 50.7 km/h 50.7 km/h 31 % 0 mm 431.0 W/m2 CLR
14:06 -13.2 °C -22.1 °C 34899.5 hPa NNW 53.6 km/h 53.6 km/h 31 % 0 mm 299.0 W/m2 CLR
14:11 -13.2 °C -22.1 °C 34899.5 hPa NNW 44.7 km/h 44.7 km/h 31 % 0 mm 411.0 W/m2 CLR
14:16 -13.2 °C -22.1 °C 34899.5 hPa NNW 35.7 km/h 35.7 km/h 31 % 0 mm 404.0 W/m2 CLR
14:21 -12.8 °C -22.1 °C 34899.5 hPa North 50.7 km/h 50.7 km/h 30 % 0 mm 397.0 W/m2 CLR
14:26 -13.2 °C -22.4 °C 34899.5 hPa NNW 56.6 km/h 56.6 km/h 30 % 0 mm 390.0 W/m2 CLR
14:31 -13.2 °C -22.4 °C 34899.5 hPa NW 53.6 km/h 53.6 km/h 30 % 0 mm 383.0 W/m2 CLR
14:36 -12.8 °C -22.1 °C 34889.3 hPa North 46.7 km/h 46.7 km/h 30 % 0 mm 374.0 W/m2 CLR
14:41 -12.8 °C -22.1 °C 34899.5 hPa NW 50.7 km/h 50.7 km/h 30 % 0 mm 366.0 W/m2 CLR
14:46 -13.2 °C -22.4 °C 34899.5 hPa NNW 50.7 km/h 50.7 km/h 30 % 0 mm 355.0 W/m2 CLR
14:51 -13.2 °C -22.4 °C 34899.5 hPa NNW 47.6 km/h 47.6 km/h 30 % 0 mm 348.0 W/m2 CLR
14:56 -12.8 °C -21.8 °C 34899.5 hPa NW 47.6 km/h 47.6 km/h 31 % 0 mm 339.0 W/m2 CLR
15:01 -13.2 °C -22.1 °C 34899.5 hPa North 50.7 km/h 50.7 km/h 31 % 0 mm 329.0 W/m2 CLR
15:06 -13.2 °C -22.1 °C 34899.5 hPa NNW 50.7 km/h 50.7 km/h 31 % 0 mm 318.0 W/m2 CLR
15:11 -13.2 °C -22.1 °C 34889.3 hPa NNW 47.6 km/h 47.6 km/h 31 % 0 mm 308.0 W/m2 CLR
15:16 -13.2 °C -22.1 °C 34899.5 hPa WNW 38.8 km/h 38.8 km/h 31 % 0 mm 299.0 W/m2 CLR
15:21 -13.2 °C -22.1 °C 34899.5 hPa NW 53.6 km/h 53.6 km/h 31 % 0 mm 287.0 W/m2 CLR
15:23 -13.2 °C -22.1 °C 34899.5 hPa NNW 44.7 km/h 44.7 km/h 31 % 0 mm 283.0 W/m2 CLR
15:28 -13.2 °C -22.1 °C 34899.5 hPa NW 38.8 km/h 38.8 km/h 31 % 0 mm 272.0 W/m2 CLR
15:33 -13.2 °C -22.1 °C 34909.7 hPa NNW 47.6 km/h 47.6 km/h 31 % 0 mm 258.0 W/m2 CLR
15:38 -13.2 °C -22.1 °C 34899.5 hPa NNW 50.7 km/h 50.7 km/h 31 % 0 mm 246.0 W/m2 CLR
15:43 -13.2 °C -22.1 °C 34899.5 hPa NNW 47.6 km/h 47.6 km/h 31 % 0 mm 232.0 W/m2 CLR
15:48 -13.4 °C -22.2 °C 34899.5 hPa NW 44.7 km/h 44.7 km/h 32 % 0 mm 220.0 W/m2 CLR
15:53 -13.4 °C -22.2 °C 34899.5 hPa NNW 53.6 km/h 53.6 km/h 32 % 0 mm 207.0 W/m2 CLR
15:58 -13.4 °C -22.2 °C 34899.5 hPa NNW 47.6 km/h 47.6 km/h 32 % 0 mm 193.0 W/m2 CLR
16:03 -13.8 °C -22.4 °C 34899.5 hPa NNW 53.6 km/h 53.6 km/h 32 % 0 mm 176.0 W/m2 CLR
16:08 -13.8 °C -22.2 °C 34899.5 hPa NNW 47.6 km/h 47.6 km/h 33 % 0 mm 160.0 W/m2 CLR
16:13 -13.8 °C -22.2 °C 34909.7 hPa NNW 50.7 km/h 50.7 km/h 33 % 0 mm 146.0 W/m2 CLR
16:14 -13.8 °C -22.2 °C 34909.7 hPa NW 50.7 km/h 50.7 km/h 33 % 0 mm 144.0 W/m2 CLR
16:19 -13.8 °C -22.2 °C 34909.7 hPa NW 50.7 km/h 50.7 km/h 33 % 0 mm 128.0 W/m2 CLR
16:24 -13.8 °C -22.2 °C 34909.7 hPa NNW 44.7 km/h 44.7 km/h 33 % 0 mm 114.0 W/m2 CLR
16:29 -13.8 °C -22.2 °C 34909.7 hPa North 41.4 km/h 41.4 km/h 33 % 0 mm 102.0 W/m2 CLR
16:34 -13.8 °C -22.2 °C 34909.7 hPa NW 36.2 km/h 36.2 km/h 33 % 0 mm 90.0 W/m2 CLR
16:39 -14.1 °C -22.5 °C 34909.7 hPa NW 53.6 km/h 53.6 km/h 33 % 0 mm 67.0 W/m2 FEW
16:44 -14.1 °C -22.5 °C 34909.7 hPa NNW 50.7 km/h 50.7 km/h 33 % 0 mm 53.0 W/m2 SCT
16:49 -14.1 °C -22.3 °C 34899.5 hPa NNW 49.2 km/h 49.2 km/h 34 % 0 mm 51.0 W/m2 SCT
16:54 -14.1 °C -22.3 °C 34899.5 hPa NW 38.8 km/h 38.8 km/h 34 % 0 mm 26.0 W/m2 BKN
16:59 -14.4 °C -22.6 °C 34899.5 hPa NW 41.7 km/h 41.7 km/h 34 % 0 mm 30.0 W/m2 BKN
17:04 -14.4 °C -22.3 °C 34899.5 hPa NW 29.8 km/h 29.8 km/h 35 % 0 mm 12.0 W/m2 BKN
17:09 -14.4 °C -22.2 °C 34909.7 hPa NW 44.7 km/h 44.7 km/h 36 % 0 mm 11.0 W/m2 BKN
17:14 -14.4 °C -22.2 °C 34909.7 hPa NW 35.7 km/h 35.7 km/h 36 % 0 mm 9.0 W/m2 BKN
17:19 -14.4 °C -22.2 °C 34909.7 hPa NNW 44.1 km/h 44.1 km/h 36 % 0 mm 7.0 W/m2 BKN
17:24 -14.7 °C -22.4 °C 34909.7 hPa NW 32.8 km/h 32.8 km/h 36 % 0 mm 5.0 W/m2 OVC
17:29 -14.7 °C -22.6 °C 34909.7 hPa NW 50.7 km/h 50.7 km/h 35 % 0 mm 5.0 W/m2 OVC
17:34 -14.7 °C -22.6 °C 34909.7 hPa WNW 32.8 km/h 32.8 km/h 35 % 0 mm 0.0 W/m2 OVC
17:39 -14.7 °C -22.6 °C 34923.2 hPa NW 32.8 km/h 32.8 km/h 35 % 0 mm 0.0 W/m2 OVC
17:44 -15 °C -22.9 °C 34909.7 hPa WNW 29.8 km/h 29.8 km/h 35 % 0 mm 0.0 W/m2 CLR
17:49 -15 °C -22.9 °C 34909.7 hPa WNW 38.8 km/h 38.8 km/h 35 % 0 mm 0.0 W/m2 CLR
17:54 -15 °C -22.9 °C 34909.7 hPa NW 44.1 km/h 44.1 km/h 35 % 0 mm 0.0 W/m2 CLR
17:59 -15 °C -22.9 °C 34923.2 hPa WNW 29.8 km/h 29.8 km/h 35 % 0 mm 0.0 W/m2 CLR
18:04 -15 °C -22.9 °C 34923.2 hPa NW 29.8 km/h 29.8 km/h 35 % 0 mm 0.0 W/m2 CLR
18:09 -15.3 °C -22.9 °C 34923.2 hPa WNW 32.8 km/h 32.8 km/h 36 % 0 mm 0.0 W/m2 CLR
18:14 -15.3 °C -22.9 °C 34923.2 hPa NW 32.8 km/h 32.8 km/h 36 % 0 mm 0.0 W/m2 CLR
18:19 -15.3 °C -22.9 °C 34933.4 hPa WNW 31.1 km/h 31.1 km/h 36 % 0 mm 0.0 W/m2 CLR
18:24 -15.3 °C -22.8 °C 34933.4 hPa NW 38.8 km/h 38.8 km/h 37 % 0 mm 0.0 W/m2 CLR
18:29 -15.6 °C -23.1 °C 34933.4 hPa NW 35.7 km/h 35.7 km/h 37 % 0 mm 0.0 W/m2 CLR
18:34 -15.3 °C -22.6 °C 34933.4 hPa NW 38.8 km/h 38.8 km/h 38 % 0 mm 0.0 W/m2 CLR
18:39 -15.3 °C -22.4 °C 34933.4 hPa WNW 29.8 km/h 29.8 km/h 39 % 0 mm 0.0 W/m2 CLR
18:44 -15.3 °C -22.4 °C 34933.4 hPa NW 23.8 km/h 23.8 km/h 39 % 0 mm 0.0 W/m2 CLR
18:49 -15.3 °C -22.4 °C 34933.4 hPa WNW 32.8 km/h 32.8 km/h 39 % 0 mm 0.0 W/m2 CLR
18:54 -15.3 °C -22.4 °C 34933.4 hPa WNW 35.7 km/h 35.7 km/h 39 % 0 mm 0.0 W/m2 CLR
18:59 -15.6 °C -22.5 °C 34933.4 hPa WNW 32.8 km/h 32.8 km/h 40 % 0 mm 0.0 W/m2 CLR
19:04 -15.6 °C -22.5 °C 34946.9 hPa WSW 3.1 km/h   40 % 0 mm 0.0 W/m2 CLR
19:09 -15.6 °C -22.5 °C 34946.9 hPa West 5.1 km/h 6 km/h 40 % 0 mm 0.0 W/m2 CLR
19:14 -15.6 °C -22 °C 34946.9 hPa WNW 26.9 km/h 26.9 km/h 43 % 0 mm 0.0 W/m2 CLR
19:19 -15.9 °C -22.1 °C 34946.9 hPa NW 32.8 km/h 32.8 km/h 44 % 0 mm 0.0 W/m2 CLR
19:24 -16.2 °C -22.2 °C 34946.9 hPa NW 29.8 km/h 29.8 km/h 45 % 0 mm 0.0 W/m2 CLR
19:29 -16.6 °C -22.5 °C 34957.1 hPa WNW 23.8 km/h 23.8 km/h 45 % 0 mm 0.0 W/m2 CLR
19:34 -16.8 °C -22.8 °C 34946.9 hPa WNW 20.9 km/h 20.9 km/h 45 % 0 mm 0.0 W/m2 CLR
19:39 -17.2 °C -23.1 °C 34946.9 hPa West 15.6 km/h 15.6 km/h 45 % 0 mm 0.0 W/m2 CLR
19:44 -17.2 °C -23.1 °C 34957.1 hPa West 20.9 km/h 20.9 km/h 45 % 0 mm 0.0 W/m2 CLR
19:49 -16.2 °C -22.1 °C 34957.1 hPa West 23.8 km/h 23.8 km/h 46 % 0 mm 0.0 W/m2 CLR
19:54 -16.2 °C -21.9 °C 34957.1 hPa WNW 9 km/h 9 km/h 47 % 0 mm 0.0 W/m2 CLR
19:59 -16.6 °C -22.1 °C 34957.1 hPa West 11.9 km/h 13.5 km/h 48 % 0 mm 0.0 W/m2 CLR
20:04 -16.8 °C -22.2 °C 34957.1 hPa West 17.9 km/h 17.9 km/h 49 % 0 mm 0.0 W/m2 CLR
20:09 -17.2 °C -22.4 °C 34957.1 hPa West 15 km/h 15 km/h 49 % 0 mm 0.0 W/m2 CLR
20:14 -17.4 °C -22.6 °C 34957.1 hPa West 23.8 km/h 23.8 km/h 50 % 0 mm 0.0 W/m2 CLR
20:19 -17.8 °C -22.7 °C 34967.2 hPa West 23.8 km/h 23.8 km/h 51 % 0 mm 0.0 W/m2 CLR
20:24 -17.8 °C -22.6 °C 34957.1 hPa WNW 29.8 km/h 29.8 km/h 52 % 0 mm 0.0 W/m2 CLR
20:29 -17.8 °C -22.6 °C 34957.1 hPa WNW 26.9 km/h 26.9 km/h 52 % 0 mm 0.0 W/m2 CLR
20:34 -17.4 °C -22.2 °C 34957.1 hPa West 36.2 km/h 36.2 km/h 53 % 0 mm 0.0 W/m2 CLR
20:39 -17.2 °C -21.8 °C 34957.1 hPa West 29.8 km/h 29.8 km/h 54 % 0 mm 0.0 W/m2 CLR
20:44 -16.8 °C -21.5 °C 34967.2 hPa West 41.4 km/h 41.4 km/h 54 % 0 mm 0.0 W/m2 CLR
20:49 -16.2 °C -20.8 °C 34967.2 hPa West 26.9 km/h 26.9 km/h 55 % 0 mm 0.0 W/m2 CLR
20:55 -15.9 °C -20.3 °C 34967.2 hPa West 23.8 km/h 23.8 km/h 56 % 0 mm 0.0 W/m2 CLR
21:00 -16.2 °C -20.5 °C 34967.2 hPa West 29.8 km/h 29.8 km/h 57 % 0 mm 0.0 W/m2 CLR
21:05 -16.2 °C -20.4 °C 34967.2 hPa West 31.1 km/h 31.1 km/h 58 % 0 mm 0.0 W/m2 CLR
21:10 -16.2 °C -20.2 °C 34967.2 hPa WNW 26.9 km/h 26.9 km/h 59 % 0 mm 0.0 W/m2 CLR
21:15 -16.2 °C -20.1 °C 34967.2 hPa WNW 32.8 km/h 32.8 km/h 60 % 0 mm 0.0 W/m2 CLR
21:20 -16.6 °C -20.3 °C 34967.2 hPa West 31.1 km/h 31.1 km/h 61 % 0 mm 0.0 W/m2 CLR
21:25 -16.6 °C -20.2 °C 34967.2 hPa WNW 35.7 km/h 35.7 km/h 62 % 0 mm 0.0 W/m2 CLR
21:30 -16.2 °C -19.8 °C 34967.2 hPa NW 32.8 km/h 32.8 km/h 63 % 0 mm 0.0 W/m2 CLR
21:35 -16.2 °C -19.8 °C 34967.2 hPa WNW 35.7 km/h 35.7 km/h 63 % 0 mm 0.0 W/m2 CLR
21:40 -15.9 °C -19.5 °C 34980.8 hPa WNW 36.2 km/h 36.2 km/h 63 % 0 mm 0.0 W/m2 CLR
21:45 -15.9 °C -19.3 °C 34980.8 hPa NW 32.8 km/h 32.8 km/h 64 % 0 mm 0.0 W/m2 CLR
21:50 -15.9 °C -19.3 °C 34980.8 hPa WNW 33.6 km/h 33.6 km/h 64 % 0 mm 0.0 W/m2 CLR
21:55 -16.2 °C -19.6 °C 34980.8 hPa WNW 32.8 km/h 32.8 km/h 65 % 0 mm 0.0 W/m2 CLR
22:00 -16.2 °C -19.6 °C 34980.8 hPa WNW 32.8 km/h 32.8 km/h 65 % 0 mm 0.0 W/m2 CLR
22:05 -16.2 °C -19.4 °C 34980.8 hPa WNW 32.8 km/h 32.8 km/h 66 % 0 mm 0.0 W/m2 CLR
22:10 -15.9 °C -19.1 °C 34980.8 hPa NW 32.8 km/h 32.8 km/h 66 % 0 mm 0.0 W/m2 CLR
22:15 -15.9 °C -19.1 °C 34980.8 hPa West 32.8 km/h 32.8 km/h 66 % 0 mm 0.0 W/m2 CLR
22:20 -16.2 °C -19.4 °C 34980.8 hPa WNW 33.6 km/h 33.6 km/h 66 % 0 mm 0.0 W/m2 CLR
22:25 -16.2 °C -19.4 °C 34990.9 hPa WNW 29.8 km/h 29.8 km/h 66 % 0 mm 0.0 W/m2 CLR
22:30 -16.2 °C -19.4 °C 34990.9 hPa West 23.8 km/h 23.8 km/h 66 % 0 mm 0.0 W/m2 CLR
22:35 -16.2 °C -19.3 °C 34990.9 hPa West 17.9 km/h 17.9 km/h 67 % 0 mm 0.0 W/m2 CLR
22:40 -16.6 °C -19.5 °C 34990.9 hPa WNW 15.6 km/h 15.6 km/h 68 % 0 mm 0.0 W/m2 CLR
22:45 -16.8 °C -19.8 °C 34990.9 hPa West 15 km/h 15 km/h 68 % 0 mm 0.0 W/m2 CLR
22:50 -17.2 °C -20.1 °C 34990.9 hPa West 20.9 km/h 20.9 km/h 68 % 0 mm 0.0 W/m2 CLR
22:55 -17.8 °C -20.7 °C 35001.1 hPa West 20.9 km/h 20.9 km/h 68 % 0 mm 0.0 W/m2 CLR
23:00 -17.8 °C -20.6 °C 35001.1 hPa West 20.9 km/h 20.9 km/h 69 % 0 mm 0.0 W/m2 CLR
23:05 -18.1 °C -20.9 °C 35001.1 hPa West 15.6 km/h 15.6 km/h 69 % 0 mm 0.0 W/m2 CLR
23:10 -18.4 °C -21.2 °C 35001.1 hPa West 17.9 km/h 17.9 km/h 69 % 0 mm 0.0 W/m2 CLR
23:15 -18.4 °C -21.2 °C 35001.1 hPa West 9 km/h 9 km/h 69 % 0 mm 0.0 W/m2 CLR
23:20 -18.7 °C -21.3 °C 35014.6 hPa West 15 km/h 15 km/h 70 % 0 mm 0.0 W/m2 CLR
23:25 -19 °C -21.6 °C 35014.6 hPa West 15 km/h 15 km/h 71 % 0 mm 0.0 W/m2 CLR
23:30 -19 °C -21.6 °C 35014.6 hPa WNW 15 km/h 15 km/h 71 % 0 mm 0.0 W/m2 CLR
23:35 -19 °C -21.6 °C 35014.6 hPa West 17.9 km/h 17.9 km/h 71 % 0 mm 0.0 W/m2 CLR
23:40 -19.3 °C -21.8 °C 35014.6 hPa West 11.9 km/h 11.9 km/h 71 % 0 mm 0.0 W/m2 CLR
23:42 -19.3 °C -21.8 °C 35024.8 hPa WSW 10.3 km/h 10.3 km/h 71 % 0 mm 0.0 W/m2 CLR
23:47 -19.3 °C -21.7 °C 35024.8 hPa WSW 11.9 km/h 12.7 km/h 72 % 0 mm 0.0 W/m2 CLR
23:52 -19.3 °C -21.7 °C 35024.8 hPa West 9 km/h 9 km/h 72 % 0 mm 0.0 W/m2 CLR
23:57 -19.3 °C -21.6 °C 35024.8 hPa WNW 15 km/h 15 km/h 73 % 0 mm 0.0 W/m2 CLR
Lo Temps de Massalio
Compliments of Weather Underground - 1 mb